Time;durP1;ratioP1;P1;durP2;ratioP2;P2;SDS_P1;SDS_P2;PMS_P1;PMS_P2;Temp;Humidity;BMP_temperature;BMP_pressure;BME280_temperature;BME280_humidity;BME280_pressure;Samples;Min_cycle;Max_cycle;Signal;HPM_P1;HPM_P2
2022/09/15 00:01:21;;;;;;;1.10;1.00;;;26.20;73.60;;;;;;5095561;28;20468;-87
2022/09/15 00:03:47;;;;;;;1.10;1.00;;;26.20;73.50;;;;;;5095470;28;20440;-88
2022/09/15 00:06:14;;;;;;;1.20;1.00;;;26.30;73.60;;;;;;5095112;28;20466;-80
2022/09/15 00:08:42;;;;;;;1.27;1.17;;;26.20;73.50;;;;;;5094136;28;20444;-80
2022/09/15 00:11:12;;;;;;;1.37;1.27;;;26.30;73.50;;;;;;5095063;28;20427;-80
2022/09/15 00:13:41;;;;;;;1.30;1.20;;;26.30;73.60;;;;;;5095183;28;20518;-88
2022/09/15 00:16:09;;;;;;;1.20;1.10;;;26.30;73.60;;;;;;5095167;28;20440;-80
2022/09/15 00:18:39;;;;;;;1.27;1.17;;;26.30;74.40;;;;;;5097816;28;20473;-87
2022/09/15 00:21:08;;;;;;;1.30;1.13;;;26.30;73.60;;;;;;5115567;28;20448;-80
2022/09/15 00:23:35;;;;;;;1.43;1.00;;;26.20;74.40;;;;;;5115323;28;20431;-86
2022/09/15 00:26:06;;;;;;;1.13;1.03;;;26.20;73.60;;;;;;5114862;28;20862;-81
2022/09/15 00:28:33;;;;;;;1.20;1.10;;;26.20;73.50;;;;;;5115300;28;20786;-80
2022/09/15 00:30:59;;;;;;;1.10;1.00;;;26.20;74.30;;;;;;5095081;28;20524;-80
2022/09/15 00:33:26;;;;;;;1.40;1.30;;;26.20;73.50;;;;;;5094882;28;21029;-80
2022/09/15 00:35:55;;;;;;;1.23;1.13;;;26.20;73.50;;;;;;5094741;28;20467;-80
2022/09/15 00:38:21;;;;;;;1.40;1.30;;;26.20;73.50;;;;;;5094404;28;20976;-80
2022/09/15 00:40:50;;;;;;;1.23;1.13;;;26.20;73.50;;;;;;5094433;28;20929;-86
2022/09/15 00:43:20;;;;;;;1.20;1.10;;;26.20;73.50;;;;;;5094736;28;20446;-80
2022/09/15 00:45:48;;;;;;;1.20;1.10;;;26.20;73.50;;;;;;5103528;28;20442;-80
2022/09/15 00:48:17;;;;;;;0.97;0.87;;;26.20;73.50;;;;;;5115061;28;20441;-81
2022/09/15 00:50:49;;;;;;;1.17;1.07;;;26.20;73.60;;;;;;5114750;28;20461;-80
2022/09/15 00:53:20;;;;;;;1.30;1.20;;;26.20;73.60;;;;;;5115223;28;20454;-87
2022/09/15 00:55:49;;;;;;;1.23;1.13;;;26.20;73.50;;;;;;5114526;28;20490;-80
2022/09/15 00:58:23;;;;;;;0.93;0.90;;;26.20;73.50;;;;;;5114619;28;20451;-80
2022/09/15 01:00:55;;;;;;;1.43;1.33;;;26.20;73.50;;;;;;5114816;28;20948;-88
2022/09/15 01:03:22;;;;;;;2.00;1.20;;;26.20;73.50;;;;;;5114856;28;20455;-80
2022/09/15 01:05:53;;;;;;;1.23;1.13;;;26.20;73.50;;;;;;5114262;28;20462;-87
2022/09/15 01:08:27;;;;;;;1.00;0.90;;;26.20;73.50;;;;;;5114711;28;20522;-82
2022/09/15 01:10:55;;;;;;;1.40;1.20;;;26.20;73.40;;;;;;5114437;28;20541;-87
2022/09/15 01:13:22;;;;;;;1.40;1.30;;;26.20;73.40;;;;;;5114322;28;20441;-86
2022/09/15 01:16:00;;;;;;;1.37;1.27;;;26.10;73.30;;;;;;5096536;28;20677;-86
2022/09/15 01:18:34;;;;;;;1.30;1.20;;;26.20;73.40;;;;;;5093785;28;20431;-83
2022/09/15 01:21:09;;;;;;;1.17;1.07;;;26.10;73.30;;;;;;5093372;28;20435;-86
2022/09/15 01:24:15;;;;;;;1.50;1.10;;;26.20;73.30;;;;;;5093868;28;20443;-80
2022/09/15 01:27:06;;;;;;;1.17;1.07;;;26.20;73.40;;;;;;5094289;28;20767;-80
2022/09/15 01:30:00;;;;;;;1.70;1.60;;;26.10;73.30;;;;;;5093661;28;20456;-80
2022/09/15 01:35:32;;;;;;;1.57;1.13;;;26.10;73.40;;;;;;5093574;28;20556;-85
2022/09/15 01:38:04;;;;;;;1.17;1.07;;;26.10;73.40;;;;;;5093695;28;20447;-80
2022/09/15 01:40:36;;;;;;;1.30;1.20;;;26.10;73.40;;;;;;5093655;28;20439;-80
2022/09/15 01:43:06;;;;;;;1.73;1.20;;;26.10;73.40;;;;;;5093507;28;20525;-87
2022/09/15 01:45:37;;;;;;;1.30;1.20;;;26.00;73.30;;;;;;5093387;28;20436;-87
2022/09/15 01:48:07;;;;;;;1.20;1.10;;;26.10;73.40;;;;;;5093681;28;20435;-86
2022/09/15 01:50:37;;;;;;;1.33;1.23;;;26.10;73.40;;;;;;5093308;28;20436;-80
2022/09/15 01:53:11;;;;;;;1.00;0.90;;;26.10;73.30;;;;;;5093381;28;20935;-80
2022/09/15 01:55:42;;;;;;;1.30;1.20;;;26.10;73.30;;;;;;5093076;28;20488;-80
2022/09/15 01:58:09;;;;;;;1.20;1.10;;;26.10;73.30;;;;;;5093457;28;20443;-80
2022/09/15 02:00:42;;;;;;;1.00;0.80;;;26.10;73.30;;;;;;5093332;28;20527;-80
2022/09/15 02:03:16;;;;;;;1.20;1.10;;;26.10;73.30;;;;;;5093442;28;20534;-87
2022/09/15 02:05:48;;;;;;;1.10;1.00;;;26.10;73.30;;;;;;5093453;28;20470;-80
2022/09/15 02:08:23;;;;;;;1.27;1.17;;;26.10;73.30;;;;;;5093269;28;20447;-80
2022/09/15 02:10:59;;;;;;;1.30;1.20;;;26.10;73.30;;;;;;5093617;28;20438;-87
2022/09/15 02:13:36;;;;;;;1.30;1.20;;;26.00;73.20;;;;;;5093168;28;20467;-80
2022/09/15 02:16:12;;;;;;;1.13;1.03;;;26.10;73.30;;;;;;5093462;28;20482;-87
2022/09/15 02:18:44;;;;;;;1.30;1.20;;;26.00;73.20;;;;;;5096639;28;20474;-80
2022/09/15 02:21:16;;;;;;;1.27;1.17;;;26.00;73.20;;;;;;5113513;28;20488;-80
2022/09/15 02:23:51;;;;;;;1.10;1.00;;;26.00;73.30;;;;;;5113827;28;20791;-80
2022/09/15 02:26:21;;;;;;;1.00;0.90;;;26.00;73.30;;;;;;5113426;28;20439;-84
2022/09/15 02:28:50;;;;;;;1.20;1.10;;;26.00;73.30;;;;;;5113755;28;20443;-84
2022/09/15 02:31:20;;;;;;;1.17;1.07;;;26.00;74.20;;;;;;5113222;28;20451;-80
2022/09/15 02:33:51;;;;;;;1.33;1.23;;;26.00;73.30;;;;;;5116942;28;20532;-88
2022/09/15 02:36:20;;;;;;;1.30;1.20;;;26.00;73.30;;;;;;5117348;28;20489;-80
2022/09/15 02:38:50;;;;;;;1.20;1.10;;;26.00;73.30;;;;;;5117309;28;20928;-80
2022/09/15 02:41:17;;;;;;;1.37;1.27;;;26.00;73.20;;;;;;5117287;28;21024;-80
2022/09/15 02:43:48;;;;;;;1.10;1.00;;;26.00;73.20;;;;;;5117224;28;20538;-80
2022/09/15 02:46:16;;;;;;;1.10;1.00;;;26.00;73.20;;;;;;5117636;28;20476;-80
2022/09/15 02:48:44;;;;;;;1.20;1.10;;;26.00;73.20;;;;;;5117286;28;20789;-80
2022/09/15 02:51:11;;;;;;;1.10;1.00;;;26.00;73.20;;;;;;5116834;28;20496;-88
2022/09/15 02:53:38;;;;;;;1.00;0.90;;;26.00;73.20;;;;;;5117111;28;20453;-80
2022/09/15 02:56:05;;;;;;;1.23;1.13;;;26.00;73.20;;;;;;5117058;28;21090;-80
2022/09/15 02:58:32;;;;;;;1.13;1.03;;;26.00;73.20;;;;;;5116930;28;20427;-80
2022/09/15 03:01:02;;;;;;;1.93;1.30;;;26.00;73.20;;;;;;5116748;28;20443;-87
2022/09/15 03:03:30;;;;;;;1.27;1.17;;;26.00;73.20;;;;;;5099242;28;20447;-80
2022/09/15 03:06:15;;;;;;;1.20;1.10;;;26.00;73.20;;;;;;5116511;28;20537;-87
2022/09/15 03:08:43;;;;;;;1.33;1.23;;;26.00;73.20;;;;;;5116669;28;20453;-80
2022/09/15 03:11:11;;;;;;;1.20;1.10;;;26.00;74.10;;;;;;5108146;28;21000;-80
2022/09/15 03:13:38;;;;;;;1.10;1.00;;;26.00;73.30;;;;;;5096553;28;20447;-85
2022/09/15 03:16:09;;;;;;;1.30;1.20;;;26.00;73.30;;;;;;5096271;28;21057;-80
2022/09/15 03:18:36;;;;;;;1.47;1.07;;;26.00;73.20;;;;;;5095842;28;20478;-80
2022/09/15 03:21:06;;;;;;;1.30;1.20;;;26.00;73.30;;;;;;5096233;28;20439;-80
2022/09/15 03:23:33;;;;;;;1.30;1.20;;;26.00;73.20;;;;;;5096117;28;20432;-81
2022/09/15 03:26:00;;;;;;;1.83;0.90;;;26.00;73.20;;;;;;5096173;28;20855;-80
2022/09/15 03:28:28;;;;;;;1.40;1.30;;;26.00;73.30;;;;;;5096091;28;20443;-87
2022/09/15 03:30:55;;;;;;;1.00;0.90;;;26.00;73.30;;;;;;5096205;28;20436;-80
2022/09/15 03:33:23;;;;;;;1.10;1.00;;;26.00;73.30;;;;;;5096074;28;20432;-81
2022/09/15 03:35:51;;;;;;;1.63;1.07;;;26.00;73.30;;;;;;5095795;28;21063;-86
2022/09/15 03:38:20;;;;;;;1.20;1.10;;;26.00;73.30;;;;;;5095596;28;20436;-88
2022/09/15 03:40:57;;;;;;;1.83;1.20;;;26.00;73.30;;;;;;5075637;28;20440;-88
2022/09/15 03:43:24;;;;;;;1.20;1.10;;;26.00;73.30;;;;;;5075420;28;20804;-80
2022/09/15 03:45:51;;;;;;;1.17;1.07;;;26.00;73.30;;;;;;5075518;28;20518;-88
2022/09/15 03:48:18;;;;;;;1.40;1.30;;;26.00;73.30;;;;;;5075410;28;20944;-80
2022/09/15 03:50:45;;;;;;;1.23;1.13;;;26.00;73.30;;;;;;5075479;28;20531;-80
2022/09/15 03:53:11;;;;;;;1.20;1.00;;;26.00;73.30;;;;;;5075457;28;20447;-80
2022/09/15 03:55:40;;;;;;;1.30;1.20;;;26.00;73.30;;;;;;5075249;28;20486;-80
2022/09/15 03:58:06;;;;;;;1.10;1.00;;;26.00;73.30;;;;;;5075313;28;20466;-80
2022/09/15 04:00:34;;;;;;;1.30;1.20;;;26.00;73.30;;;;;;5075278;28;20451;-80
2022/09/15 04:03:00;;;;;;;1.00;0.90;;;26.00;73.30;;;;;;5075491;28;20776;-80
2022/09/15 04:05:27;;;;;;;1.13;1.03;;;26.00;73.30;;;;;;5074934;28;20462;-86
2022/09/15 04:07:54;;;;;;;1.00;0.90;;;26.00;73.30;;;;;;5088978;28;20436;-81
2022/09/15 04:10:23;;;;;;;1.23;1.13;;;26.00;73.30;;;;;;5095295;28;20438;-81
2022/09/15 04:12:52;;;;;;;1.07;0.97;;;26.00;73.30;;;;;;5095057;28;20927;-87
2022/09/15 04:15:19;;;;;;;0.90;0.90;;;26.00;73.30;;;;;;5095153;28;20863;-84
2022/09/15 04:17:46;;;;;;;1.10;1.00;;;26.00;73.40;;;;;;5095280;28;20436;-80
2022/09/15 04:20:13;;;;;;;1.40;1.20;;;26.00;73.30;;;;;;5111650;28;20814;-88
2022/09/15 04:22:41;;;;;;;1.00;0.90;;;26.00;73.30;;;;;;5115417;28;20534;-87
2022/09/15 04:25:09;;;;;;;0.97;0.87;;;26.00;73.30;;;;;;5115285;28;20434;-80
2022/09/15 04:27:37;;;;;;;1.30;1.20;;;26.00;73.30;;;;;;5115241;28;20431;-80
2022/09/15 04:30:07;;;;;;;1.50;1.40;;;26.00;73.30;;;;;;5115337;28;20435;-80
2022/09/15 04:32:35;;;;;;;1.00;0.90;;;26.00;73.30;;;;;;5115374;28;20530;-80
2022/09/15 04:35:02;;;;;;;1.00;0.90;;;26.00;73.30;;;;;;5114904;28;20479;-80
2022/09/15 04:37:30;;;;;;;1.43;1.33;;;26.00;73.30;;;;;;5115026;28;20520;-87
2022/09/15 04:39:56;;;;;;;1.10;1.00;;;26.00;73.30;;;;;;5115183;28;20435;-80
2022/09/15 04:42:23;;;;;;;1.10;1.00;;;26.00;73.30;;;;;;5114657;28;20488;-80
2022/09/15 04:44:50;;;;;;;1.00;0.90;;;26.00;73.30;;;;;;5115079;28;20477;-88
2022/09/15 04:47:18;;;;;;;2.03;1.00;;;26.00;73.30;;;;;;5114928;28;20442;-85
2022/09/15 04:49:45;;;;;;;1.10;1.00;;;26.00;73.30;;;;;;5114720;28;20428;-88
2022/09/15 04:52:12;;;;;;;1.20;1.10;;;26.00;73.30;;;;;;5114893;28;20442;-80
2022/09/15 04:54:39;;;;;;;0.83;0.83;;;26.00;73.30;;;;;;5114894;28;20518;-80
2022/09/15 04:57:06;;;;;;;1.10;1.00;;;26.00;73.30;;;;;;5114322;28;21098;-80
2022/09/15 04:59:33;;;;;;;1.20;1.10;;;26.00;73.30;;;;;;5114716;28;20447;-80
2022/09/15 05:02:00;;;;;;;1.30;1.20;;;26.00;73.30;;;;;;5114910;28;20435;-80
2022/09/15 05:04:28;;;;;;;1.20;1.10;;;26.00;73.30;;;;;;5114346;28;20973;-81
2022/09/15 05:06:55;;;;;;;1.10;1.00;;;26.00;73.30;;;;;;5114846;28;20435;-80
2022/09/15 05:09:22;;;;;;;1.37;1.27;;;26.00;73.30;;;;;;5114649;28;20465;-88
2022/09/15 05:11:48;;;;;;;1.20;1.10;;;26.00;73.30;;;;;;5114641;28;20446;-80
2022/09/15 05:14:15;;;;;;;1.10;1.00;;;26.00;73.30;;;;;;5114554;28;20444;-88
2022/09/15 05:16:42;;;;;;;1.20;1.10;;;26.00;73.30;;;;;;5114017;28;20558;-81
2022/09/15 05:19:10;;;;;;;1.10;1.00;;;26.00;73.30;;;;;;5100987;28;20510;-79
2022/09/15 05:21:38;;;;;;;1.40;1.00;;;26.00;73.30;;;;;;5093926;28;20512;-80
2022/09/15 05:24:05;;;;;;;0.80;0.73;;;26.00;73.30;;;;;;5093756;28;20436;-80
2022/09/15 05:26:32;;;;;;;1.27;1.17;;;26.00;74.20;;;;;;5094058;28;21002;-88
2022/09/15 05:28:59;;;;;;;1.30;1.20;;;26.00;73.30;;;;;;5093730;28;20501;-80
2022/09/15 05:31:27;;;;;;;1.10;1.00;;;26.00;73.30;;;;;;5093706;28;20532;-81
2022/09/15 05:33:55;;;;;;;1.00;0.90;;;26.00;74.10;;;;;;5093670;28;20470;-80
2022/09/15 05:36:23;;;;;;;1.10;1.00;;;26.00;73.30;;;;;;5093602;28;20822;-79
2022/09/15 05:38:52;;;;;;;1.20;1.10;;;26.00;73.30;;;;;;5093765;28;20442;-81
2022/09/15 05:41:20;;;;;;;1.10;1.00;;;26.00;73.20;;;;;;5093556;28;20442;-87
2022/09/15 05:43:49;;;;;;;1.20;1.10;;;26.00;74.10;;;;;;5093511;28;20446;-80
2022/09/15 05:46:17;;;;;;;1.23;1.13;;;26.00;73.30;;;;;;5093699;28;20527;-87
2022/09/15 05:48:45;;;;;;;1.20;1.10;;;26.00;73.30;;;;;;5093398;28;20444;-81
2022/09/15 05:51:12;;;;;;;1.17;1.03;;;26.00;73.30;;;;;;5093680;28;20440;-87
2022/09/15 05:53:39;;;;;;;1.70;1.00;;;26.00;73.30;;;;;;5093512;28;20440;-88
2022/09/15 05:56:11;;;;;;;1.20;1.10;;;26.00;73.30;;;;;;5093441;28;20490;-80
2022/09/15 05:58:40;;;;;;;1.10;1.00;;;26.00;73.30;;;;;;5093446;28;20439;-80
2022/09/15 06:01:10;;;;;;;1.07;0.97;;;26.00;73.30;;;;;;5093639;28;20441;-80
2022/09/15 06:03:37;;;;;;;1.40;1.00;;;26.00;73.30;;;;;;5093288;28;20438;-80
2022/09/15 06:06:06;;;;;;;1.07;0.97;;;26.00;73.30;;;;;;5093948;28;20446;-80
2022/09/15 06:08:34;;;;;;;1.20;1.10;;;26.00;73.30;;;;;;5097548;28;20959;-80
2022/09/15 06:11:02;;;;;;;1.40;1.00;;;26.00;73.30;;;;;;5097444;28;20438;-80
2022/09/15 06:13:30;;;;;;;4.40;1.53;;;26.00;73.30;;;;;;5097237;28;20444;-82
2022/09/15 06:16:01;;;;;;;1.53;0.80;;;26.00;73.30;;;;;;5097190;28;20578;-80
2022/09/15 06:18:28;;;;;;;1.03;0.93;;;26.00;73.30;;;;;;5099054;28;20427;-84
2022/09/15 06:20:54;;;;;;;1.43;1.13;;;26.00;73.40;;;;;;5117768;28;20530;-81
2022/09/15 06:23:21;;;;;;;1.57;1.00;;;26.00;73.40;;;;;;5114653;28;22062;-83
2022/09/15 06:25:48;;;;;;;1.10;1.00;;;26.00;73.40;;;;;;5096677;28;20540;-80
2022/09/15 06:28:15;;;;;;;2.33;1.43;;;26.00;73.40;;;;;;5096064;28;20447;-81
2022/09/15 06:30:47;;;;;;;1.10;1.00;;;26.00;73.40;;;;;;5096882;28;20440;-81
2022/09/15 06:33:14;;;;;;;1.00;0.90;;;26.00;73.50;;;;;;5096717;28;20464;-80
2022/09/15 06:35:41;;;;;;;1.00;0.90;;;26.00;73.60;;;;;;5096694;28;20478;-89
2022/09/15 06:38:08;;;;;;;1.20;1.10;;;26.00;73.60;;;;;;5096607;28;20458;-88
2022/09/15 06:40:35;;;;;;;1.10;1.00;;;26.00;73.60;;;;;;5096902;28;20435;-89
2022/09/15 06:43:02;;;;;;;1.10;1.00;;;26.00;74.50;;;;;;5096586;28;20514;-81
2022/09/15 06:45:30;;;;;;;1.10;0.90;;;26.00;73.70;;;;;;5095264;28;20450;-87
2022/09/15 06:47:58;;;;;;;1.10;1.00;;;26.00;73.70;;;;;;5095315;28;21188;-81
2022/09/15 06:50:25;;;;;;;1.00;0.90;;;26.10;73.70;;;;;;5095404;28;20443;-81
2022/09/15 06:52:52;;;;;;;1.23;1.10;;;26.10;73.80;;;;;;5096655;28;20451;-89
2022/09/15 06:55:19;;;;;;;1.40;0.90;;;26.10;73.80;;;;;;5096044;28;20537;-88
2022/09/15 06:57:45;;;;;;;2.70;1.23;;;26.10;73.80;;;;;;5095988;28;20537;-81
2022/09/15 07:00:13;;;;;;;1.90;1.00;;;26.10;73.70;;;;;;5096469;28;20444;-82
2022/09/15 07:02:40;;;;;;;1.30;1.00;;;26.10;73.70;;;;;;5096367;28;20446;-80
2022/09/15 07:05:09;;;;;;;1.53;0.93;;;26.10;73.70;;;;;;5095807;28;20505;-81
2022/09/15 07:07:36;;;;;;;1.10;1.00;;;26.10;73.80;;;;;;5096382;28;20448;-80
2022/09/15 07:10:04;;;;;;;1.10;1.00;;;26.10;73.80;;;;;;5096346;28;20440;-80
2022/09/15 07:12:31;;;;;;;1.83;0.80;;;26.10;73.80;;;;;;5095313;28;20497;-86
2022/09/15 07:14:58;;;;;;;2.40;1.30;;;26.10;74.30;;;;;;5095504;28;20942;-84
2022/09/15 07:17:26;;;;;;;1.20;1.00;;;26.10;75.20;;;;;;5098448;28;20482;-88
2022/09/15 07:19:53;;;;;;;1.37;1.10;;;26.10;75.70;;;;;;5096496;28;20559;-83
2022/09/15 07:22:25;;;;;;;1.50;1.30;;;26.10;75.90;;;;;;5097825;28;20444;-87
2022/09/15 07:24:52;;;;;;;1.00;0.90;;;26.10;76.10;;;;;;5096914;28;20817;-83
2022/09/15 07:27:18;;;;;;;1.70;0.87;;;26.10;76.30;;;;;;5096177;28;20456;-81
2022/09/15 07:29:45;;;;;;;1.27;1.17;;;26.10;76.50;;;;;;5096438;28;20453;-89
2022/09/15 07:32:12;;;;;;;1.30;1.20;;;26.10;76.40;;;;;;5096170;28;20446;-79
2022/09/15 07:34:39;;;;;;;1.43;1.00;;;26.10;76.50;;;;;;5096405;28;20812;-80
2022/09/15 07:37:07;;;;;;;1.20;1.10;;;26.10;76.60;;;;;;5088671;28;20483;-79
2022/09/15 07:39:37;;;;;;;2.20;0.93;;;26.10;76.70;;;;;;5095282;28;20453;-79
2022/09/15 07:42:04;;;;;;;2.77;2.23;;;26.10;76.20;;;;;;5073883;28;20506;-80
2022/09/15 07:44:31;;;;;;;2.50;1.17;;;26.00;75.30;;;;;;5091174;28;20935;-81
2022/09/15 07:46:58;;;;;;;3.20;1.57;;;26.00;75.70;;;;;;5094729;28;20443;-80
2022/09/15 07:49:25;;;;;;;1.10;1.00;;;26.00;76.20;;;;;;5091882;28;20439;-83
2022/09/15 07:51:51;;;;;;;1.40;1.30;;;26.00;76.30;;;;;;5092240;28;20545;-83
2022/09/15 07:54:18;;;;;;;1.17;0.90;;;26.00;76.70;;;;;;5093931;28;20550;-85
2022/09/15 07:56:46;;;;;;;1.60;1.40;;;26.10;76.80;;;;;;5094006;28;21028;-84
2022/09/15 07:59:13;;;;;;;2.43;1.20;;;26.00;77.30;;;;;;5094872;28;20510;-85
2022/09/15 08:01:40;;;;;;;1.23;1.00;;;26.00;76.30;;;;;;5094520;28;21007;-82
2022/09/15 08:04:07;;;;;;;1.00;0.90;;;26.10;76.70;;;;;;5093203;28;20472;-83
2022/09/15 08:06:34;;;;;;;1.20;1.10;;;26.10;76.80;;;;;;5092977;28;20440;-82
2022/09/15 08:09:01;;;;;;;1.40;1.30;;;26.10;76.60;;;;;;5094056;28;20524;-89
2022/09/15 08:11:29;;;;;;;1.40;1.30;;;26.10;75.80;;;;;;5093420;28;20527;-84
2022/09/15 08:14:01;;;;;;;2.60;2.00;;;26.00;74.80;;;;;;5094114;28;20522;-83
2022/09/15 08:16:28;;;;;;;10.30;2.57;;;26.00;74.80;;;;;;5094683;28;20464;-87
2022/09/15 08:18:55;;;;;;;1.90;1.73;;;25.80;74.60;;;;;;5094605;28;20990;-83
2022/09/15 08:21:23;;;;;;;3.00;1.60;;;25.80;74.50;;;;;;5095291;28;20922;-83
2022/09/15 08:23:51;;;;;;;2.33;1.10;;;25.80;74.50;;;;;;5095020;28;20436;-83
2022/09/15 08:26:19;;;;;;;2.00;1.00;;;25.90;75.00;;;;;;5094918;28;20428;-83
2022/09/15 08:28:46;;;;;;;1.40;1.07;;;26.00;75.50;;;;;;5092848;28;20935;-83
2022/09/15 08:31:15;;;;;;;1.10;1.00;;;26.00;75.90;;;;;;5093670;28;20530;-83
2022/09/15 08:33:42;;;;;;;1.93;1.23;;;26.00;75.50;;;;;;5095027;28;20486;-83
2022/09/15 08:36:10;;;;;;;3.60;1.10;;;26.00;75.20;;;;;;5094651;28;20448;-83
2022/09/15 08:38:39;;;;;;;1.30;1.03;;;26.00;75.10;;;;;;5094823;28;20957;-83
2022/09/15 08:41:11;;;;;;;2.37;1.10;;;26.00;75.10;;;;;;5094779;28;21317;-84
2022/09/15 08:43:44;;;;;;;6.03;1.30;;;26.00;75.00;;;;;;5094858;28;20485;-83
2022/09/15 08:46:17;;;;;;;2.43;1.00;;;26.10;74.90;;;;;;5094825;28;20432;-83
2022/09/15 08:48:48;;;;;;;1.60;0.80;;;26.10;74.80;;;;;;5094857;28;20465;-86
2022/09/15 08:51:22;;;;;;;2.60;1.23;;;26.10;74.70;;;;;;5094742;28;20527;-83
2022/09/15 08:53:53;;;;;;;2.07;1.40;;;26.10;74.60;;;;;;5094655;28;20432;-84
2022/09/15 08:56:21;;;;;;;2.70;1.10;;;26.10;74.60;;;;;;5094510;28;20443;-88
2022/09/15 08:58:48;;;;;;;1.10;0.90;;;26.10;74.50;;;;;;5094417;28;20474;-84
2022/09/15 09:01:31;;;;;;;3.13;1.20;;;26.10;74.40;;;;;;5094403;28;20436;-83
2022/09/15 09:04:19;;;;;;;1.10;1.00;;;26.10;74.30;;;;;;5094334;28;20459;-83
2022/09/15 09:06:56;;;;;;;1.10;0.90;;;26.20;74.30;;;;;;5094343;28;20440;-83
2022/09/15 09:09:31;;;;;;;1.70;1.20;;;26.20;74.20;;;;;;5094461;28;20795;-84
2022/09/15 09:12:19;;;;;;;1.40;1.10;;;26.20;74.20;;;;;;5094759;28;20485;-83
2022/09/15 09:14:55;;;;;;;2.30;1.10;;;26.20;74.10;;;;;;5094089;28;20493;-83
2022/09/15 09:17:38;;;;;;;2.23;0.90;;;26.20;74.00;;;;;;5093806;28;20479;-83
2022/09/15 09:20:30;;;;;;;1.00;0.90;;;26.20;73.90;;;;;;5109739;28;20825;-83
2022/09/15 09:23:00;;;;;;;0.80;0.80;;;26.30;73.80;;;;;;5109740;28;20482;-83
2022/09/15 09:25:27;;;;;;;1.33;0.90;;;26.20;73.90;;;;;;5114475;28;20988;-83
2022/09/15 09:27:55;;;;;;;1.30;1.00;;;26.20;73.80;;;;;;5114508;28;20538;-83
2022/09/15 09:30:24;;;;;;;1.10;1.00;;;26.20;73.60;;;;;;5114283;28;20439;-89
2022/09/15 09:32:59;;;;;;;1.00;0.90;;;26.30;73.70;;;;;;5114372;28;20778;-83
2022/09/15 09:35:34;;;;;;;1.10;1.00;;;26.30;73.70;;;;;;5114402;28;20435;-83
2022/09/15 09:38:01;;;;;;;1.30;1.00;;;26.30;73.60;;;;;;5114294;28;20488;-83
2022/09/15 09:40:29;;;;;;;1.27;0.87;;;26.30;73.60;;;;;;5114312;28;20870;-83
2022/09/15 09:42:57;;;;;;;1.37;1.27;;;26.40;73.60;;;;;;5114107;28;20435;-83
2022/09/15 09:45:24;;;;;;;1.07;0.97;;;26.40;73.50;;;;;;5113782;28;20530;-84
2022/09/15 09:47:56;;;;;;;1.63;0.90;;;26.30;73.30;;;;;;5114008;28;20444;-83
2022/09/15 09:50:34;;;;;;;1.70;0.90;;;26.40;73.40;;;;;;5114089;28;20458;-83
2022/09/15 09:53:18;;;;;;;1.10;1.00;;;26.40;73.20;;;;;;5114007;28;20427;-83
2022/09/15 09:55:45;;;;;;;1.10;1.00;;;26.40;73.20;;;;;;5114143;28;20533;-85
2022/09/15 09:58:14;;;;;;;1.43;0.93;;;26.30;73.20;;;;;;5113969;28;20487;-85
2022/09/15 10:00:41;;;;;;;1.10;0.93;;;26.30;73.10;;;;;;5113903;28;20471;-83
2022/09/15 10:03:16;;;;;;;1.90;0.97;;;26.30;73.00;;;;;;5113916;28;20437;-83
2022/09/15 10:05:44;;;;;;;1.00;0.90;;;26.30;72.90;;;;;;5113818;28;20439;-83
2022/09/15 10:08:18;;;;;;;1.83;1.00;;;26.30;73.00;;;;;;5113909;28;20441;-83
2022/09/15 10:10:53;;;;;;;0.90;0.80;;;26.30;73.00;;;;;;5114152;28;20435;-83
2022/09/15 10:13:21;;;;;;;1.10;0.80;;;26.30;73.10;;;;;;5113711;28;20441;-83
2022/09/15 10:15:53;;;;;;;1.20;1.10;;;26.30;73.00;;;;;;5113711;28;20524;-83
2022/09/15 10:18:39;;;;;;;0.97;0.83;;;26.30;73.00;;;;;;5113393;28;20487;-83
2022/09/15 10:21:09;;;;;;;1.00;0.90;;;26.30;72.90;;;;;;5113828;28;20449;-83
2022/09/15 10:23:37;;;;;;;1.20;0.90;;;26.30;73.00;;;;;;5113841;28;20439;-83
2022/09/15 10:26:22;;;;;;;0.93;0.80;;;26.20;72.90;;;;;;5113775;28;20525;-85
2022/09/15 10:29:11;;;;;;;1.20;1.10;;;26.30;72.90;;;;;;5113620;28;20453;-83
2022/09/15 10:31:39;;;;;;;0.93;0.80;;;26.30;72.90;;;;;;5113591;28;20443;-83
2022/09/15 10:34:30;;;;;;;1.20;1.10;;;26.20;73.00;;;;;;5113847;28;20461;-83
2022/09/15 10:37:07;;;;;;;1.10;0.90;;;26.30;72.90;;;;;;5107501;28;20478;-83
2022/09/15 10:39:42;;;;;;;0.97;0.90;;;26.20;73.00;;;;;;5113688;28;20435;-87
2022/09/15 10:42:18;;;;;;;1.30;1.10;;;26.20;73.00;;;;;;5113668;28;20436;-83
2022/09/15 10:44:54;;;;;;;1.00;0.80;;;26.20;73.00;;;;;;5113366;28;20525;-83
2022/09/15 10:47:30;;;;;;;1.63;1.43;;;26.20;73.10;;;;;;5113391;28;20445;-88
2022/09/15 10:50:09;;;;;;;1.73;0.90;;;26.20;73.10;;;;;;5113615;28;20450;-84
2022/09/15 10:52:50;;;;;;;1.00;0.90;;;26.20;73.20;;;;;;5113734;28;20447;-84
2022/09/15 10:55:30;;;;;;;1.33;0.87;;;26.20;73.30;;;;;;5117224;28;20781;-83
2022/09/15 10:58:08;;;;;;;1.10;1.00;;;26.20;73.30;;;;;;5117316;28;20535;-83
2022/09/15 11:00:44;;;;;;;1.50;0.93;;;26.20;73.30;;;;;;5117369;28;20441;-83
2022/09/15 11:03:42;;;;;;;1.10;0.93;;;26.20;73.30;;;;;;5117159;28;20437;-86
2022/09/15 11:06:18;;;;;;;0.80;0.80;;;26.20;73.30;;;;;;5117296;28;20587;-89
2022/09/15 11:09:05;;;;;;;0.97;0.80;;;26.20;73.40;;;;;;5117096;28;20434;-84
2022/09/15 11:11:41;;;;;;;1.50;1.03;;;26.20;73.30;;;;;;5117370;28;20423;-83
2022/09/15 11:14:32;;;;;;;1.40;0.97;;;26.20;73.40;;;;;;5116962;28;20933;-89
2022/09/15 11:17:29;;;;;;;0.80;0.80;;;26.20;73.40;;;;;;5116961;28;20439;-84
2022/09/15 11:20:21;;;;;;;1.40;1.00;;;26.20;73.40;;;;;;5108101;28;20470;-83
2022/09/15 11:22:57;;;;;;;2.03;0.90;;;26.20;73.40;;;;;;5105176;28;20535;-83
2022/09/15 11:25:28;;;;;;;2.30;1.30;;;26.20;73.50;;;;;;5116903;28;20442;-89
2022/09/15 11:28:01;;;;;;;0.90;0.80;;;26.20;73.40;;;;;;5116846;28;20450;-83
2022/09/15 11:30:35;;;;;;;1.13;0.80;;;26.20;73.50;;;;;;5116790;28;20439;-84
2022/09/15 11:33:06;;;;;;;1.10;0.80;;;26.20;73.40;;;;;;5116572;28;20449;-83
2022/09/15 11:35:42;;;;;;;0.90;0.80;;;26.20;73.40;;;;;;5116739;28;20538;-83
2022/09/15 11:38:21;;;;;;;0.90;0.80;;;26.20;73.40;;;;;;5116248;28;20482;-83
2022/09/15 11:40:55;;;;;;;1.20;0.70;;;26.20;73.30;;;;;;5116652;28;20917;-84
2022/09/15 11:43:30;;;;;;;1.10;1.00;;;26.20;73.40;;;;;;5116373;28;20439;-83
2022/09/15 11:46:00;;;;;;;1.00;0.90;;;26.20;73.40;;;;;;5116464;28;20437;-89
2022/09/15 11:48:33;;;;;;;1.00;0.80;;;26.20;73.30;;;;;;5115990;28;20809;-83
2022/09/15 11:51:03;;;;;;;1.10;0.90;;;26.20;74.20;;;;;;5116015;28;20509;-83
2022/09/15 11:53:37;;;;;;;1.40;0.90;;;26.20;73.40;;;;;;5115984;28;20447;-83
2022/09/15 11:56:13;;;;;;;1.53;0.90;;;26.20;73.40;;;;;;5116243;28;20448;-83
2022/09/15 11:58:54;;;;;;;1.20;0.87;;;26.20;73.30;;;;;;5115969;28;20488;-84
2022/09/15 12:01:24;;;;;;;1.20;0.90;;;26.20;73.30;;;;;;5116208;28;20462;-83
2022/09/15 12:03:58;;;;;;;1.53;1.00;;;26.20;73.30;;;;;;5115855;28;21016;-84
2022/09/15 12:06:32;;;;;;;0.90;0.80;;;26.30;73.40;;;;;;5115874;28;20443;-83
2022/09/15 12:09:03;;;;;;;1.10;0.77;;;26.30;73.30;;;;;;5116092;28;20438;-83
2022/09/15 12:11:32;;;;;;;1.40;0.90;;;26.30;73.30;;;;;;5116127;28;20509;-83
2022/09/15 12:14:02;;;;;;;1.10;0.90;;;26.30;73.20;;;;;;5116101;28;20446;-84
2022/09/15 12:16:29;;;;;;;1.10;0.83;;;26.30;73.20;;;;;;5115453;28;20462;-85
2022/09/15 12:19:00;;;;;;;3.20;1.00;;;26.30;73.20;;;;;;5115410;28;20493;-83
2022/09/15 12:21:35;;;;;;;1.00;0.80;;;26.30;73.20;;;;;;5115774;28;20442;-85
2022/09/15 12:24:13;;;;;;;0.93;0.83;;;26.30;73.20;;;;;;5115413;28;20427;-84
2022/09/15 12:26:45;;;;;;;1.90;0.80;;;26.30;73.20;;;;;;5115753;28;20451;-84
2022/09/15 12:29:36;;;;;;;1.10;0.90;;;26.30;73.20;;;;;;5115672;28;20439;-84
2022/09/15 12:32:24;;;;;;;0.90;0.70;;;26.30;73.10;;;;;;5115553;28;20433;-83
2022/09/15 12:35:02;;;;;;;1.67;1.00;;;26.30;73.10;;;;;;5115424;28;20452;-83
2022/09/15 12:37:42;;;;;;;1.07;0.80;;;26.30;73.20;;;;;;5115398;28;20812;-83
2022/09/15 12:40:35;;;;;;;1.00;0.80;;;26.30;73.10;;;;;;5115358;28;20513;-84
2022/09/15 12:43:14;;;;;;;1.00;0.80;;;26.30;73.00;;;;;;5115348;28;20439;-83
2022/09/15 12:45:52;;;;;;;1.00;0.80;;;26.20;73.10;;;;;;5115148;28;20995;-84
2022/09/15 12:48:23;;;;;;;1.10;1.00;;;26.30;73.10;;;;;;5114966;28;20438;-89
2022/09/15 12:50:53;;;;;;;1.30;0.90;;;26.30;73.00;;;;;;5115161;28;20433;-84
2022/09/15 12:53:23;;;;;;;0.93;0.83;;;26.30;73.00;;;;;;5115132;28;20449;-84
2022/09/15 12:55:54;;;;;;;0.90;0.70;;;26.30;72.90;;;;;;5115108;28;20497;-89
2022/09/15 12:58:29;;;;;;;0.90;0.80;;;26.30;72.90;;;;;;5114916;28;20501;-83
2022/09/15 13:01:30;;;;;;;1.30;0.90;;;26.30;72.90;;;;;;5114909;28;20438;-83
2022/09/15 13:04:22;;;;;;;1.77;1.00;;;26.30;72.80;;;;;;5114958;28;20569;-84
2022/09/15 13:07:32;;;;;;;0.80;0.70;;;26.20;71.50;;;;;;5115481;28;20474;-83
2022/09/15 13:10:17;;;;;;;1.13;0.90;;;26.20;72.30;;;;;;5114785;28;20444;-85
2022/09/15 13:12:54;;;;;;;3.57;0.80;;;26.20;72.70;;;;;;5114624;28;20445;-84